Terminal Aerodrome Forecast
Issued by NWS Louisville, KY

Home | Current Version | Previous Version | Text Only | Print | Product List | Glossary On
Versions: 1 2 3 4 5 6 7 8 9 10 11 12 13 14 15 16 17 18
000
FTUS43 KLMK 040700 AAA
TAFBWG
TAF AMD
KBWG 040705Z 0407/0506 26009KT 6SM -SHRA BR SCT008 BKN018
      TEMPO 0407/0408 3SM -SHRA BR BKN008
     FM040800 33007KT 4SM -SHRA BR BKN006
     FM042200 36009KT 2SM -RAPL BR BKN008
     FM042300 36009KT 2SM -PL BR BKN010
     FM050100 36011KT 1SM -SN BR BKN010=

USA.gov is the U.S. government's official web portal to all federal, state and local government web resources and services.